Terminal Aerodrome Forecast
Issued by NWS Springfield, MO

Home | Current Version | Previous Version | Text Only | Print | Product List | Glossary On
Versions: 1 2 3 4 5 6 7 8 9 10 11 12 13 14 15 16 17 18 19
000
FTUS43 KSGF 051100
TAFSGF
TAF
KSGF 051123Z 0512/0612 16008KT 2SM BR OVC003
      TEMPO 0513/0516 5SM BR BKN007
     FM051600 19010KT P6SM SCT030 SCT250
     FM060000 16007KT P6SM SKC
     FM060600 16011KT P6SM SCT250 WS017/22035KT=

USA.gov is the U.S. government's official web portal to all federal, state and local government web resources and services.